sensor_id;sensor_type;location;lat;lon;timestamp;P1;durP1;ratioP1;P2;durP2;ratioP2
25207;SDS011;13153;52.316;21.166;2024-03-29T00:01:08;21.67;;;13.43;;
25207;SDS011;13153;52.316;21.166;2024-03-29T00:03:33;22.00;;;12.60;;
25207;SDS011;13153;52.316;21.166;2024-03-29T00:05:59;21.25;;;12.07;;
25207;SDS011;13153;52.316;21.166;2024-03-29T00:08:43;20.50;;;11.43;;
25207;SDS011;13153;52.316;21.166;2024-03-29T00:11:09;19.48;;;11.02;;
25207;SDS011;13153;52.316;21.166;2024-03-29T00:13:35;18.95;;;9.48;;
25207;SDS011;13153;52.316;21.166;2024-03-29T00:16:01;19.27;;;9.45;;
25207;SDS011;13153;52.316;21.166;2024-03-29T00:18:26;16.00;;;8.90;;
25207;SDS011;13153;52.316;21.166;2024-03-29T00:20:52;18.40;;;9.30;;
25207;SDS011;13153;52.316;21.166;2024-03-29T00:23:18;15.07;;;8.30;;
25207;SDS011;13153;52.316;21.166;2024-03-29T00:25:43;16.30;;;8.80;;
25207;SDS011;13153;52.316;21.166;2024-03-29T00:28:09;14.63;;;8.68;;
25207;SDS011;13153;52.316;21.166;2024-03-29T00:30:53;14.67;;;8.47;;
25207;SDS011;13153;52.316;21.166;2024-03-29T00:33:20;15.88;;;8.68;;
25207;SDS011;13153;52.316;21.166;2024-03-29T00:35:46;17.23;;;8.10;;
25207;SDS011;13153;52.316;21.166;2024-03-29T00:38:11;18.15;;;8.60;;
25207;SDS011;13153;52.316;21.166;2024-03-29T00:40:38;15.10;;;8.05;;
25207;SDS011;13153;52.316;21.166;2024-03-29T00:43:03;19.00;;;8.05;;
25207;SDS011;13153;52.316;21.166;2024-03-29T00:45:29;14.57;;;8.70;;
25207;SDS011;13153;52.316;21.166;2024-03-29T00:47:55;15.48;;;8.52;;
25207;SDS011;13153;52.316;21.166;2024-03-29T00:50:21;14.15;;;7.63;;
25207;SDS011;13153;52.316;21.166;2024-03-29T00:52:46;12.82;;;7.50;;
25207;SDS011;13153;52.316;21.166;2024-03-29T00:55:13;16.80;;;8.02;;
25207;SDS011;13153;52.316;21.166;2024-03-29T00:57:39;15.98;;;7.60;;
25207;SDS011;13153;52.316;21.166;2024-03-29T01:00:05;13.65;;;7.78;;
25207;SDS011;13153;52.316;21.166;2024-03-29T01:02:32;17.35;;;7.65;;
25207;SDS011;13153;52.316;21.166;2024-03-29T01:04:58;13.07;;;7.45;;
25207;SDS011;13153;52.316;21.166;2024-03-29T01:07:23;16.13;;;8.13;;
25207;SDS011;13153;52.316;21.166;2024-03-29T01:09:49;13.57;;;6.97;;
25207;SDS011;13153;52.316;21.166;2024-03-29T01:12:15;13.63;;;6.72;;
25207;SDS011;13153;52.316;21.166;2024-03-29T01:14:41;13.70;;;6.50;;
25207;SDS011;13153;52.316;21.166;2024-03-29T01:17:07;11.98;;;5.78;;
25207;SDS011;13153;52.316;21.166;2024-03-29T01:19:33;9.50;;;5.93;;
25207;SDS011;13153;52.316;21.166;2024-03-29T01:21:58;8.95;;;5.72;;
25207;SDS011;13153;52.316;21.166;2024-03-29T01:24:24;11.82;;;5.38;;
25207;SDS011;13153;52.316;21.166;2024-03-29T01:26:50;10.43;;;5.13;;
25207;SDS011;13153;52.316;21.166;2024-03-29T01:29:16;10.05;;;4.70;;
25207;SDS011;13153;52.316;21.166;2024-03-29T01:31:42;10.63;;;5.22;;
25207;SDS011;13153;52.316;21.166;2024-03-29T01:34:08;10.02;;;4.95;;
25207;SDS011;13153;52.316;21.166;2024-03-29T01:36:33;8.90;;;4.97;;
25207;SDS011;13153;52.316;21.166;2024-03-29T01:39:18;8.10;;;4.72;;
25207;SDS011;13153;52.316;21.166;2024-03-29T01:41:46;9.95;;;4.55;;
25207;SDS011;13153;52.316;21.166;2024-03-29T01:44:12;7.35;;;4.50;;
25207;SDS011;13153;52.316;21.166;2024-03-29T01:46:56;7.38;;;4.35;;
25207;SDS011;13153;52.316;21.166;2024-03-29T01:49:22;7.10;;;4.13;;
25207;SDS011;13153;52.316;21.166;2024-03-29T01:51:47;7.10;;;3.55;;
25207;SDS011;13153;52.316;21.166;2024-03-29T01:56:58;5.10;;;3.65;;
25207;SDS011;13153;52.316;21.166;2024-03-29T01:59:25;6.20;;;3.40;;
25207;SDS011;13153;52.316;21.166;2024-03-29T02:02:10;5.38;;;3.63;;
25207;SDS011;13153;52.316;21.166;2024-03-29T02:04:36;4.50;;;3.50;;
25207;SDS011;13153;52.316;21.166;2024-03-29T02:07:03;6.20;;;3.50;;
25207;SDS011;13153;52.316;21.166;2024-03-29T02:09:29;4.97;;;3.17;;
25207;SDS011;13153;52.316;21.166;2024-03-29T02:11:55;4.47;;;3.10;;
25207;SDS011;13153;52.316;21.166;2024-03-29T02:14:39;7.60;;;3.72;;
25207;SDS011;13153;52.316;21.166;2024-03-29T02:17:05;6.65;;;3.80;;
25207;SDS011;13153;52.316;21.166;2024-03-29T02:19:31;5.70;;;3.13;;
25207;SDS011;13153;52.316;21.166;2024-03-29T02:21:57;5.40;;;3.40;;
25207;SDS011;13153;52.316;21.166;2024-03-29T02:24:26;6.60;;;3.40;;
25207;SDS011;13153;52.316;21.166;2024-03-29T02:29:37;4.47;;;3.40;;
25207;SDS011;13153;52.316;21.166;2024-03-29T02:34:47;5.63;;;3.40;;
25207;SDS011;13153;52.316;21.166;2024-03-29T02:37:13;7.43;;;3.65;;
25207;SDS011;13153;52.316;21.166;2024-03-29T02:39:57;7.47;;;3.65;;
25207;SDS011;13153;52.316;21.166;2024-03-29T02:42:23;6.10;;;3.83;;
25207;SDS011;13153;52.316;21.166;2024-03-29T02:45:07;9.55;;;3.70;;
25207;SDS011;13153;52.316;21.166;2024-03-29T02:47:34;9.10;;;3.50;;
25207;SDS011;13153;52.316;21.166;2024-03-29T02:49:59;5.15;;;3.40;;
25207;SDS011;13153;52.316;21.166;2024-03-29T02:52:25;5.97;;;3.65;;
25207;SDS011;13153;52.316;21.166;2024-03-29T02:54:52;8.25;;;3.70;;
25207;SDS011;13153;52.316;21.166;2024-03-29T02:57:17;7.38;;;3.80;;
25207;SDS011;13153;52.316;21.166;2024-03-29T02:59:43;8.18;;;4.00;;
25207;SDS011;13153;52.316;21.166;2024-03-29T03:02:09;6.13;;;3.67;;
25207;SDS011;13153;52.316;21.166;2024-03-29T03:04:34;7.60;;;4.00;;
25207;SDS011;13153;52.316;21.166;2024-03-29T03:07:19;6.32;;;3.72;;
25207;SDS011;13153;52.316;21.166;2024-03-29T03:10:03;10.80;;;3.83;;
25207;SDS011;13153;52.316;21.166;2024-03-29T03:13:07;8.35;;;3.90;;
25207;SDS011;13153;52.316;21.166;2024-03-29T03:15:32;8.93;;;3.70;;
25207;SDS011;13153;52.316;21.166;2024-03-29T03:17:58;6.30;;;3.15;;
25207;SDS011;13153;52.316;21.166;2024-03-29T03:20:24;7.10;;;3.30;;
25207;SDS011;13153;52.316;21.166;2024-03-29T03:22:55;5.78;;;3.00;;
25207;SDS011;13153;52.316;21.166;2024-03-29T03:25:22;5.43;;;3.22;;
25207;SDS011;13153;52.316;21.166;2024-03-29T03:27:50;7.72;;;3.30;;
25207;SDS011;13153;52.316;21.166;2024-03-29T03:30:15;6.72;;;2.92;;
25207;SDS011;13153;52.316;21.166;2024-03-29T03:32:41;5.35;;;3.33;;
25207;SDS011;13153;52.316;21.166;2024-03-29T03:35:07;5.47;;;3.20;;
25207;SDS011;13153;52.316;21.166;2024-03-29T03:37:33;4.25;;;2.97;;
25207;SDS011;13153;52.316;21.166;2024-03-29T03:39:59;5.60;;;2.95;;
25207;SDS011;13153;52.316;21.166;2024-03-29T03:42:25;5.25;;;3.33;;
25207;SDS011;13153;52.316;21.166;2024-03-29T03:44:50;6.30;;;2.97;;
25207;SDS011;13153;52.316;21.166;2024-03-29T03:47:35;6.88;;;2.90;;
25207;SDS011;13153;52.316;21.166;2024-03-29T03:50:01;4.22;;;2.70;;
25207;SDS011;13153;52.316;21.166;2024-03-29T03:52:27;4.22;;;3.00;;
25207;SDS011;13153;52.316;21.166;2024-03-29T03:54:53;6.90;;;2.63;;
25207;SDS011;13153;52.316;21.166;2024-03-29T03:57:19;5.68;;;3.33;;
25207;SDS011;13153;52.316;21.166;2024-03-29T04:04:55;5.57;;;2.85;;
25207;SDS011;13153;52.316;21.166;2024-03-29T04:07:21;3.60;;;2.50;;
25207;SDS011;13153;52.316;21.166;2024-03-29T04:09:50;4.90;;;2.83;;
25207;SDS011;13153;52.316;21.166;2024-03-29T04:12:16;4.45;;;2.95;;
25207;SDS011;13153;52.316;21.166;2024-03-29T04:14:43;5.60;;;2.72;;
25207;SDS011;13153;52.316;21.166;2024-03-29T04:17:28;5.20;;;3.10;;
25207;SDS011;13153;52.316;21.166;2024-03-29T04:20:12;5.55;;;3.00;;
25207;SDS011;13153;52.316;21.166;2024-03-29T04:22:57;6.07;;;2.92;;
25207;SDS011;13153;52.316;21.166;2024-03-29T04:25:23;3.75;;;2.60;;
25207;SDS011;13153;52.316;21.166;2024-03-29T04:27:48;5.78;;;2.70;;
25207;SDS011;13153;52.316;21.166;2024-03-29T04:30:14;3.88;;;2.75;;
25207;SDS011;13153;52.316;21.166;2024-03-29T04:32:40;6.10;;;3.25;;
25207;SDS011;13153;52.316;21.166;2024-03-29T04:35:06;6.90;;;3.60;;
25207;SDS011;13153;52.316;21.166;2024-03-29T04:37:32;6.65;;;2.85;;
25207;SDS011;13153;52.316;21.166;2024-03-29T04:39:58;5.10;;;2.97;;
25207;SDS011;13153;52.316;21.166;2024-03-29T04:42:24;5.45;;;3.05;;
25207;SDS011;13153;52.316;21.166;2024-03-29T04:44:50;5.40;;;2.83;;
25207;SDS011;13153;52.316;21.166;2024-03-29T04:47:16;6.65;;;2.70;;
25207;SDS011;13153;52.316;21.166;2024-03-29T04:49:42;7.10;;;3.00;;
25207;SDS011;13153;52.316;21.166;2024-03-29T04:52:07;4.88;;;3.05;;
25207;SDS011;13153;52.316;21.166;2024-03-29T04:54:33;5.35;;;3.30;;
25207;SDS011;13153;52.316;21.166;2024-03-29T04:57:00;4.57;;;3.15;;
25207;SDS011;13153;52.316;21.166;2024-03-29T04:59:28;6.15;;;3.30;;
25207;SDS011;13153;52.316;21.166;2024-03-29T05:01:54;8.10;;;4.72;;
25207;SDS011;13153;52.316;21.166;2024-03-29T05:04:22;7.82;;;4.13;;
25207;SDS011;13153;52.316;21.166;2024-03-29T05:06:57;6.57;;;3.75;;
25207;SDS011;13153;52.316;21.166;2024-03-29T05:09:24;10.90;;;5.38;;
25207;SDS011;13153;52.316;21.166;2024-03-29T05:12:27;9.32;;;5.40;;
25207;SDS011;13153;52.316;21.166;2024-03-29T05:14:53;10.60;;;5.78;;
25207;SDS011;13153;52.316;21.166;2024-03-29T05:17:18;7.38;;;4.05;;
25207;SDS011;13153;52.316;21.166;2024-03-29T05:19:50;6.70;;;3.72;;
25207;SDS011;13153;52.316;21.166;2024-03-29T05:22:16;6.85;;;3.80;;
25207;SDS011;13153;52.316;21.166;2024-03-29T05:25:00;7.57;;;3.70;;
25207;SDS011;13153;52.316;21.166;2024-03-29T05:27:26;6.50;;;3.15;;
25207;SDS011;13153;52.316;21.166;2024-03-29T05:29:52;5.28;;;3.15;;
25207;SDS011;13153;52.316;21.166;2024-03-29T05:32:18;5.40;;;3.13;;
25207;SDS011;13153;52.316;21.166;2024-03-29T05:34:43;4.40;;;2.92;;
25207;SDS011;13153;52.316;21.166;2024-03-29T05:37:09;5.10;;;3.25;;
25207;SDS011;13153;52.316;21.166;2024-03-29T05:39:35;3.88;;;3.03;;
25207;SDS011;13153;52.316;21.166;2024-03-29T05:42:01;3.58;;;2.75;;
25207;SDS011;13153;52.316;21.166;2024-03-29T05:44:26;5.38;;;3.75;;
25207;SDS011;13153;52.316;21.166;2024-03-29T05:46:52;6.43;;;4.28;;
25207;SDS011;13153;52.316;21.166;2024-03-29T05:49:18;5.50;;;3.53;;
25207;SDS011;13153;52.316;21.166;2024-03-29T05:51:44;7.60;;;3.53;;
25207;SDS011;13153;52.316;21.166;2024-03-29T05:54:09;6.13;;;3.63;;
25207;SDS011;13153;52.316;21.166;2024-03-29T05:56:35;6.93;;;3.53;;
25207;SDS011;13153;52.316;21.166;2024-03-29T05:59:01;5.85;;;3.65;;
25207;SDS011;13153;52.316;21.166;2024-03-29T06:01:45;6.57;;;3.30;;
25207;SDS011;13153;52.316;21.166;2024-03-29T06:04:11;6.93;;;3.70;;
25207;SDS011;13153;52.316;21.166;2024-03-29T06:06:44;5.35;;;3.45;;
25207;SDS011;13153;52.316;21.166;2024-03-29T06:09:10;5.22;;;3.10;;
25207;SDS011;13153;52.316;21.166;2024-03-29T06:11:36;6.00;;;2.97;;
25207;SDS011;13153;52.316;21.166;2024-03-29T06:14:03;4.93;;;3.40;;
25207;SDS011;13153;52.316;21.166;2024-03-29T06:16:28;4.45;;;2.92;;
25207;SDS011;13153;52.316;21.166;2024-03-29T06:19:13;5.00;;;2.77;;
25207;SDS011;13153;52.316;21.166;2024-03-29T06:21:40;5.85;;;2.92;;
25207;SDS011;13153;52.316;21.166;2024-03-29T06:24:08;5.18;;;3.03;;
25207;SDS011;13153;52.316;21.166;2024-03-29T06:26:39;6.88;;;2.80;;
25207;SDS011;13153;52.316;21.166;2024-03-29T06:29:06;5.35;;;2.83;;
25207;SDS011;13153;52.316;21.166;2024-03-29T06:31:36;6.03;;;2.75;;
25207;SDS011;13153;52.316;21.166;2024-03-29T06:34:02;4.88;;;2.88;;
25207;SDS011;13153;52.316;21.166;2024-03-29T06:36:27;4.93;;;3.17;;
25207;SDS011;13153;52.316;21.166;2024-03-29T06:38:55;5.85;;;2.95;;
25207;SDS011;13153;52.316;21.166;2024-03-29T06:41:21;3.97;;;2.95;;
25207;SDS011;13153;52.316;21.166;2024-03-29T06:43:47;5.28;;;3.03;;
25207;SDS011;13153;52.316;21.166;2024-03-29T06:46:13;6.07;;;2.90;;
25207;SDS011;13153;52.316;21.166;2024-03-29T06:48:39;5.72;;;2.92;;
25207;SDS011;13153;52.316;21.166;2024-03-29T06:51:24;7.55;;;3.20;;
25207;SDS011;13153;52.316;21.166;2024-03-29T06:53:49;4.78;;;3.03;;
25207;SDS011;13153;52.316;21.166;2024-03-29T06:56:34;7.53;;;3.10;;
25207;SDS011;13153;52.316;21.166;2024-03-29T07:02:04;4.28;;;2.55;;
25207;SDS011;13153;52.316;21.166;2024-03-29T07:04:31;4.18;;;2.50;;
25207;SDS011;13153;52.316;21.166;2024-03-29T07:06:58;5.03;;;2.85;;
25207;SDS011;13153;52.316;21.166;2024-03-29T07:09:24;3.78;;;2.45;;
25207;SDS011;13153;52.316;21.166;2024-03-29T07:17:19;4.88;;;2.67;;
25207;SDS011;13153;52.316;21.166;2024-03-29T07:19:45;4.25;;;2.42;;
25207;SDS011;13153;52.316;21.166;2024-03-29T07:22:10;5.07;;;2.70;;
25207;SDS011;13153;52.316;21.166;2024-03-29T07:24:36;3.70;;;2.67;;
25207;SDS011;13153;52.316;21.166;2024-03-29T07:27:02;5.28;;;2.90;;
25207;SDS011;13153;52.316;21.166;2024-03-29T07:29:46;6.65;;;2.75;;
25207;SDS011;13153;52.316;21.166;2024-03-29T07:32:12;4.13;;;2.65;;
25207;SDS011;13153;52.316;21.166;2024-03-29T07:34:38;11.43;;;3.60;;
25207;SDS011;13153;52.316;21.166;2024-03-29T07:37:05;5.03;;;3.10;;
25207;SDS011;13153;52.316;21.166;2024-03-29T07:39:49;4.78;;;2.72;;
25207;SDS011;13153;52.316;21.166;2024-03-29T07:42:15;4.78;;;2.33;;
25207;SDS011;13153;52.316;21.166;2024-03-29T07:44:41;5.25;;;2.40;;
25207;SDS011;13153;52.316;21.166;2024-03-29T07:47:08;5.10;;;2.85;;
25207;SDS011;13153;52.316;21.166;2024-03-29T07:49:33;4.15;;;2.53;;
25207;SDS011;13153;52.316;21.166;2024-03-29T07:52:00;5.22;;;2.70;;
25207;SDS011;13153;52.316;21.166;2024-03-29T07:54:30;4.45;;;2.40;;
25207;SDS011;13153;52.316;21.166;2024-03-29T07:57:00;4.40;;;2.47;;
25207;SDS011;13153;52.316;21.166;2024-03-29T07:59:26;6.30;;;2.60;;
25207;SDS011;13153;52.316;21.166;2024-03-29T08:01:52;3.00;;;2.38;;
25207;SDS011;13153;52.316;21.166;2024-03-29T08:04:19;4.35;;;2.50;;
25207;SDS011;13153;52.316;21.166;2024-03-29T08:06:45;3.05;;;2.15;;
25207;SDS011;13153;52.316;21.166;2024-03-29T08:09:11;3.55;;;2.05;;
25207;SDS011;13153;52.316;21.166;2024-03-29T08:11:39;3.25;;;2.05;;
25207;SDS011;13153;52.316;21.166;2024-03-29T08:14:05;4.07;;;2.13;;
25207;SDS011;13153;52.316;21.166;2024-03-29T08:16:32;3.50;;;2.00;;
25207;SDS011;13153;52.316;21.166;2024-03-29T08:18:58;2.67;;;2.00;;
25207;SDS011;13153;52.316;21.166;2024-03-29T08:21:24;4.97;;;1.90;;
25207;SDS011;13153;52.316;21.166;2024-03-29T08:23:52;3.22;;;2.03;;
25207;SDS011;13153;52.316;21.166;2024-03-29T08:26:20;3.60;;;2.20;;
25207;SDS011;13153;52.316;21.166;2024-03-29T08:28:49;7.57;;;2.17;;
25207;SDS011;13153;52.316;21.166;2024-03-29T08:31:15;3.95;;;2.25;;
25207;SDS011;13153;52.316;21.166;2024-03-29T08:33:41;2.85;;;2.10;;
25207;SDS011;13153;52.316;21.166;2024-03-29T08:39:10;4.10;;;1.88;;
25207;SDS011;13153;52.316;21.166;2024-03-29T08:41:36;4.68;;;1.55;;
25207;SDS011;13153;52.316;21.166;2024-03-29T08:44:02;2.95;;;1.30;;
25207;SDS011;13153;52.316;21.166;2024-03-29T08:46:28;2.15;;;1.40;;
25207;SDS011;13153;52.316;21.166;2024-03-29T08:48:55;4.47;;;1.33;;
25207;SDS011;13153;52.316;21.166;2024-03-29T08:51:20;4.82;;;1.60;;
25207;SDS011;13153;52.316;21.166;2024-03-29T08:54:05;2.45;;;1.50;;
25207;SDS011;13153;52.316;21.166;2024-03-29T08:56:49;2.03;;;1.27;;
25207;SDS011;13153;52.316;21.166;2024-03-29T08:59:15;2.58;;;1.25;;
25207;SDS011;13153;52.316;21.166;2024-03-29T09:01:41;4.90;;;1.70;;
25207;SDS011;13153;52.316;21.166;2024-03-29T09:04:10;2.13;;;1.60;;
25207;SDS011;13153;52.316;21.166;2024-03-29T09:06:39;6.78;;;1.73;;
25207;SDS011;13153;52.316;21.166;2024-03-29T09:09:05;5.55;;;1.67;;
25207;SDS011;13153;52.316;21.166;2024-03-29T09:11:32;2.25;;;1.45;;
25207;SDS011;13153;52.316;21.166;2024-03-29T09:14:16;5.55;;;1.83;;
25207;SDS011;13153;52.316;21.166;2024-03-29T09:16:42;3.25;;;1.98;;
25207;SDS011;13153;52.316;21.166;2024-03-29T09:19:07;3.30;;;1.60;;
25207;SDS011;13153;52.316;21.166;2024-03-29T09:21:33;5.25;;;1.60;;
25207;SDS011;13153;52.316;21.166;2024-03-29T09:23:59;6.18;;;1.73;;
25207;SDS011;13153;52.316;21.166;2024-03-29T09:26:25;3.75;;;1.60;;
25207;SDS011;13153;52.316;21.166;2024-03-29T09:28:50;3.45;;;1.65;;
25207;SDS011;13153;52.316;21.166;2024-03-29T09:31:16;3.35;;;1.60;;
25207;SDS011;13153;52.316;21.166;2024-03-29T09:33:42;3.17;;;1.60;;
25207;SDS011;13153;52.316;21.166;2024-03-29T09:36:08;2.33;;;1.52;;
25207;SDS011;13153;52.316;21.166;2024-03-29T09:38:36;3.22;;;1.65;;
25207;SDS011;13153;52.316;21.166;2024-03-29T09:43:38;5.15;;;1.95;;
25207;SDS011;13153;52.316;21.166;2024-03-29T09:46:08;3.45;;;1.80;;
25207;SDS011;13153;52.316;21.166;2024-03-29T09:48:34;3.03;;;1.60;;
25207;SDS011;13153;52.316;21.166;2024-03-29T09:51:04;4.30;;;1.73;;
25207;SDS011;13153;52.316;21.166;2024-03-29T09:53:35;4.45;;;1.65;;
25207;SDS011;13153;52.316;21.166;2024-03-29T09:56:03;2.45;;;1.73;;
25207;SDS011;13153;52.316;21.166;2024-03-29T09:58:31;5.32;;;1.90;;
25207;SDS011;13153;52.316;21.166;2024-03-29T10:00:57;3.10;;;1.70;;
25207;SDS011;13153;52.316;21.166;2024-03-29T10:03:27;4.55;;;1.90;;
25207;SDS011;13153;52.316;21.166;2024-03-29T10:05:59;6.50;;;2.10;;
25207;SDS011;13153;52.316;21.166;2024-03-29T10:08:26;3.33;;;1.70;;
25207;SDS011;13153;52.316;21.166;2024-03-29T10:10:54;2.85;;;1.92;;
25207;SDS011;13153;52.316;21.166;2024-03-29T10:13:24;3.40;;;1.80;;
25207;SDS011;13153;52.316;21.166;2024-03-29T10:15:53;2.95;;;1.77;;
25207;SDS011;13153;52.316;21.166;2024-03-29T10:18:22;4.43;;;1.80;;
25207;SDS011;13153;52.316;21.166;2024-03-29T10:21:01;3.30;;;1.80;;
25207;SDS011;13153;52.316;21.166;2024-03-29T10:23:30;3.88;;;1.90;;
25207;SDS011;13153;52.316;21.166;2024-03-29T10:26:16;2.75;;;1.80;;
25207;SDS011;13153;52.316;21.166;2024-03-29T10:28:43;3.50;;;1.90;;
25207;SDS011;13153;52.316;21.166;2024-03-29T10:31:12;2.75;;;1.75;;
25207;SDS011;13153;52.316;21.166;2024-03-29T10:33:41;6.45;;;1.80;;
25207;SDS011;13153;52.316;21.166;2024-03-29T10:36:12;2.53;;;1.70;;
25207;SDS011;13153;52.316;21.166;2024-03-29T10:38:40;2.35;;;1.90;;
25207;SDS011;13153;52.316;21.166;2024-03-29T10:41:06;6.07;;;2.10;;
25207;SDS011;13153;52.316;21.166;2024-03-29T10:46:20;3.53;;;1.63;;
25207;SDS011;13153;52.316;21.166;2024-03-29T10:48:47;5.90;;;1.85;;
25207;SDS011;13153;52.316;21.166;2024-03-29T10:51:40;4.70;;;1.80;;
25207;SDS011;13153;52.316;21.166;2024-03-29T10:54:10;3.85;;;1.75;;
25207;SDS011;13153;52.316;21.166;2024-03-29T10:56:37;2.60;;;1.50;;
25207;SDS011;13153;52.316;21.166;2024-03-29T10:59:10;4.18;;;1.50;;
25207;SDS011;13153;52.316;21.166;2024-03-29T11:01:42;3.65;;;1.70;;
25207;SDS011;13153;52.316;21.166;2024-03-29T11:04:15;2.95;;;1.60;;
25207;SDS011;13153;52.316;21.166;2024-03-29T11:06:50;3.65;;;1.58;;
25207;SDS011;13153;52.316;21.166;2024-03-29T11:09:21;3.53;;;1.50;;
25207;SDS011;13153;52.316;21.166;2024-03-29T11:11:55;2.25;;;1.60;;
25207;SDS011;13153;52.316;21.166;2024-03-29T11:14:31;3.15;;;1.50;;
25207;SDS011;13153;52.316;21.166;2024-03-29T11:17:09;2.58;;;1.60;;
25207;SDS011;13153;52.316;21.166;2024-03-29T11:19:37;4.05;;;1.65;;
25207;SDS011;13153;52.316;21.166;2024-03-29T11:22:04;7.28;;;1.63;;
25207;SDS011;13153;52.316;21.166;2024-03-29T11:24:31;4.57;;;1.70;;
25207;SDS011;13153;52.316;21.166;2024-03-29T11:27:16;2.28;;;1.48;;
25207;SDS011;13153;52.316;21.166;2024-03-29T11:29:44;3.13;;;1.27;;
25207;SDS011;13153;52.316;21.166;2024-03-29T11:32:12;5.28;;;1.50;;
25207;SDS011;13153;52.316;21.166;2024-03-29T11:37:29;3.72;;;2.03;;
25207;SDS011;13153;52.316;21.166;2024-03-29T11:39:59;2.85;;;1.90;;
25207;SDS011;13153;52.316;21.166;2024-03-29T11:42:38;3.92;;;1.60;;
25207;SDS011;13153;52.316;21.166;2024-03-29T11:45:29;3.17;;;1.73;;
25207;SDS011;13153;52.316;21.166;2024-03-29T11:47:59;2.85;;;1.88;;
25207;SDS011;13153;52.316;21.166;2024-03-29T11:50:52;4.38;;;1.60;;
25207;SDS011;13153;52.316;21.166;2024-03-29T11:53:21;3.38;;;1.60;;
25207;SDS011;13153;52.316;21.166;2024-03-29T11:55:47;2.33;;;1.48;;
25207;SDS011;13153;52.316;21.166;2024-03-29T11:58:23;3.05;;;1.60;;
25207;SDS011;13153;52.316;21.166;2024-03-29T12:00:50;4.32;;;1.70;;
25207;SDS011;13153;52.316;21.166;2024-03-29T12:03:17;2.03;;;1.33;;
25207;SDS011;13153;52.316;21.166;2024-03-29T12:05:47;4.88;;;1.60;;
25207;SDS011;13153;52.316;21.166;2024-03-29T12:08:42;3.53;;;1.50;;
25207;SDS011;13153;52.316;21.166;2024-03-29T12:11:09;3.50;;;1.33;;
25207;SDS011;13153;52.316;21.166;2024-03-29T12:13:35;4.32;;;1.80;;
25207;SDS011;13153;52.316;21.166;2024-03-29T12:16:01;2.50;;;1.40;;
25207;SDS011;13153;52.316;21.166;2024-03-29T12:18:28;2.97;;;1.40;;
25207;SDS011;13153;52.316;21.166;2024-03-29T12:20:57;5.55;;;1.50;;
25207;SDS011;13153;52.316;21.166;2024-03-29T12:23:23;2.97;;;1.30;;
25207;SDS011;13153;52.316;21.166;2024-03-29T12:25:50;5.45;;;1.40;;
25207;SDS011;13153;52.316;21.166;2024-03-29T12:28:20;2.25;;;1.30;;
25207;SDS011;13153;52.316;21.166;2024-03-29T12:30:47;4.85;;;1.60;;
25207;SDS011;13153;52.316;21.166;2024-03-29T12:33:15;5.88;;;1.65;;
25207;SDS011;13153;52.316;21.166;2024-03-29T12:35:46;6.32;;;1.50;;
25207;SDS011;13153;52.316;21.166;2024-03-29T12:38:15;2.58;;;1.65;;
25207;SDS011;13153;52.316;21.166;2024-03-29T12:40:43;3.22;;;1.70;;
25207;SDS011;13153;52.316;21.166;2024-03-29T12:43:15;3.38;;;1.60;;
25207;SDS011;13153;52.316;21.166;2024-03-29T12:45:46;2.80;;;1.40;;
25207;SDS011;13153;52.316;21.166;2024-03-29T12:48:15;3.50;;;1.70;;
25207;SDS011;13153;52.316;21.166;2024-03-29T12:50:45;2.13;;;1.27;;
25207;SDS011;13153;52.316;21.166;2024-03-29T12:53:13;3.13;;;1.30;;
25207;SDS011;13153;52.316;21.166;2024-03-29T12:55:41;2.67;;;1.30;;
25207;SDS011;13153;52.316;21.166;2024-03-29T12:58:13;1.67;;;1.48;;
25207;SDS011;13153;52.316;21.166;2024-03-29T13:00:41;3.28;;;1.60;;
25207;SDS011;13153;52.316;21.166;2024-03-29T13:03:08;3.65;;;2.10;;
25207;SDS011;13153;52.316;21.166;2024-03-29T13:05:38;2.97;;;1.50;;
25207;SDS011;13153;52.316;21.166;2024-03-29T13:08:09;4.07;;;1.92;;
25207;SDS011;13153;52.316;21.166;2024-03-29T13:10:42;3.13;;;1.40;;
25207;SDS011;13153;52.316;21.166;2024-03-29T13:13:09;5.78;;;2.85;;
25207;SDS011;13153;52.316;21.166;2024-03-29T13:15:36;3.38;;;1.85;;
25207;SDS011;13153;52.316;21.166;2024-03-29T13:18:04;4.80;;;1.50;;
25207;SDS011;13153;52.316;21.166;2024-03-29T13:20:32;3.97;;;1.50;;
25207;SDS011;13153;52.316;21.166;2024-03-29T13:23:05;4.45;;;1.50;;
25207;SDS011;13153;52.316;21.166;2024-03-29T13:25:31;2.33;;;1.40;;
25207;SDS011;13153;52.316;21.166;2024-03-29T13:28:16;3.45;;;1.50;;
25207;SDS011;13153;52.316;21.166;2024-03-29T13:30:41;5.00;;;2.20;;
25207;SDS011;13153;52.316;21.166;2024-03-29T13:33:13;3.72;;;1.80;;
25207;SDS011;13153;52.316;21.166;2024-03-29T13:35:38;3.58;;;1.55;;
25207;SDS011;13153;52.316;21.166;2024-03-29T13:38:07;2.97;;;1.75;;
25207;SDS011;13153;52.316;21.166;2024-03-29T13:40:33;1.65;;;1.05;;
25207;SDS011;13153;52.316;21.166;2024-03-29T13:42:59;2.72;;;1.20;;
25207;SDS011;13153;52.316;21.166;2024-03-29T13:45:25;3.60;;;1.63;;
25207;SDS011;13153;52.316;21.166;2024-03-29T13:47:52;5.93;;;1.60;;
25207;SDS011;13153;52.316;21.166;2024-03-29T13:50:18;4.50;;;1.52;;
25207;SDS011;13153;52.316;21.166;2024-03-29T13:52:44;3.20;;;1.40;;
25207;SDS011;13153;52.316;21.166;2024-03-29T13:55:10;2.92;;;1.55;;
25207;SDS011;13153;52.316;21.166;2024-03-29T13:57:36;3.40;;;1.40;;
25207;SDS011;13153;52.316;21.166;2024-03-29T14:00:03;4.28;;;1.60;;
25207;SDS011;13153;52.316;21.166;2024-03-29T14:02:31;2.30;;;1.58;;
25207;SDS011;13153;52.316;21.166;2024-03-29T14:04:57;4.35;;;1.33;;
25207;SDS011;13153;52.316;21.166;2024-03-29T14:07:23;4.55;;;1.73;;
25207;SDS011;13153;52.316;21.166;2024-03-29T14:09:50;3.13;;;1.40;;
25207;SDS011;13153;52.316;21.166;2024-03-29T14:12:16;3.95;;;1.30;;
25207;SDS011;13153;52.316;21.166;2024-03-29T14:14:43;2.55;;;1.50;;
25207;SDS011;13153;52.316;21.166;2024-03-29T14:17:13;2.90;;;1.30;;
25207;SDS011;13153;52.316;21.166;2024-03-29T14:19:39;4.93;;;1.50;;
25207;SDS011;13153;52.316;21.166;2024-03-29T14:22:06;2.67;;;1.20;;
25207;SDS011;13153;52.316;21.166;2024-03-29T14:24:33;3.80;;;1.40;;
25207;SDS011;13153;52.316;21.166;2024-03-29T14:27:02;2.80;;;1.88;;
25207;SDS011;13153;52.316;21.166;2024-03-29T14:29:29;3.17;;;1.42;;
25207;SDS011;13153;52.316;21.166;2024-03-29T14:31:58;1.98;;;1.20;;
25207;SDS011;13153;52.316;21.166;2024-03-29T14:34:26;2.33;;;1.30;;
25207;SDS011;13153;52.316;21.166;2024-03-29T14:36:52;2.08;;;1.23;;
25207;SDS011;13153;52.316;21.166;2024-03-29T14:39:18;1.30;;;1.20;;
25207;SDS011;13153;52.316;21.166;2024-03-29T14:41:46;2.85;;;1.20;;
25207;SDS011;13153;52.316;21.166;2024-03-29T14:44:14;4.22;;;1.38;;
25207;SDS011;13153;52.316;21.166;2024-03-29T14:46:42;2.50;;;1.45;;
25207;SDS011;13153;52.316;21.166;2024-03-29T14:49:12;1.88;;;1.40;;
25207;SDS011;13153;52.316;21.166;2024-03-29T14:51:39;2.75;;;1.40;;
25207;SDS011;13153;52.316;21.166;2024-03-29T14:54:08;3.50;;;1.40;;
25207;SDS011;13153;52.316;21.166;2024-03-29T14:56:34;4.22;;;1.88;;
25207;SDS011;13153;52.316;21.166;2024-03-29T14:59:03;4.05;;;1.30;;
25207;SDS011;13153;52.316;21.166;2024-03-29T15:01:31;3.78;;;1.48;;
25207;SDS011;13153;52.316;21.166;2024-03-29T15:03:58;4.50;;;1.38;;
25207;SDS011;13153;52.316;21.166;2024-03-29T15:06:24;3.88;;;1.20;;
25207;SDS011;13153;52.316;21.166;2024-03-29T15:08:52;1.92;;;1.30;;
25207;SDS011;13153;52.316;21.166;2024-03-29T15:11:21;2.13;;;1.40;;
25207;SDS011;13153;52.316;21.166;2024-03-29T15:13:47;2.03;;;1.50;;
25207;SDS011;13153;52.316;21.166;2024-03-29T15:16:13;3.83;;;1.15;;